sensor_id;sensor_type;location;lat;lon;timestamp;temperature;humidity
51305;HTU21D;37392;50.964;6.952;2023-02-01T00:02:00;6.29;-3.79
51305;HTU21D;37392;50.964;6.952;2023-02-01T00:04:26;6.30;-3.68
51305;HTU21D;37392;50.964;6.952;2023-02-01T00:06:52;6.27;-3.60
51305;HTU21D;37392;50.964;6.952;2023-02-01T00:09:18;6.20;-3.80
51305;HTU21D;37392;50.964;6.952;2023-02-01T00:11:43;6.13;-3.40
51305;HTU21D;37392;50.964;6.952;2023-02-01T00:14:09;6.10;-3.03
51305;HTU21D;37392;50.964;6.952;2023-02-01T00:16:35;6.11;-3.09
51305;HTU21D;37392;50.964;6.952;2023-02-01T00:19:10;6.10;-2.52
51305;HTU21D;37392;50.964;6.952;2023-02-01T00:21:37;6.10;-2.90
51305;HTU21D;37392;50.964;6.952;2023-02-01T00:24:03;6.10;-3.22
51305;HTU21D;37392;50.964;6.952;2023-02-01T00:26:40;6.14;-2.91
51305;HTU21D;37392;50.964;6.952;2023-02-01T00:29:15;6.16;-2.94
51305;HTU21D;37392;50.964;6.952;2023-02-01T00:31:42;6.19;-3.41
51305;HTU21D;37392;50.964;6.952;2023-02-01T00:34:11;6.21;-3.68
51305;HTU21D;37392;50.964;6.952;2023-02-01T00:36:38;6.17;-4.84
51305;HTU21D;37392;50.964;6.952;2023-02-01T00:39:03;6.10;-5.06
51305;HTU21D;37392;50.964;6.952;2023-02-01T00:41:29;6.08;-5.81
51305;HTU21D;37392;50.964;6.952;2023-02-01T00:43:54;6.07;118.87
51305;HTU21D;37392;50.964;6.952;2023-02-01T00:46:20;6.00;118.93
51305;HTU21D;37392;50.964;6.952;2023-02-01T00:48:47;5.97;-5.78
51305;HTU21D;37392;50.964;6.952;2023-02-01T00:51:15;5.98;-5.91
51305;HTU21D;37392;50.964;6.952;2023-02-01T00:53:42;5.98;-5.46
51305;HTU21D;37392;50.964;6.952;2023-02-01T00:56:08;5.97;-5.70
51305;HTU21D;37392;50.964;6.952;2023-02-01T00:58:34;5.99;118.64
51305;HTU21D;37392;50.964;6.952;2023-02-01T01:01:04;5.95;118.60
51305;HTU21D;37392;50.964;6.952;2023-02-01T01:03:36;5.93;118.68
51305;HTU21D;37392;50.964;6.952;2023-02-01T01:06:08;5.92;118.25
51305;HTU21D;37392;50.964;6.952;2023-02-01T01:08:36;5.87;118.21
51305;HTU21D;37392;50.964;6.952;2023-02-01T01:11:15;5.89;117.88
51305;HTU21D;37392;50.964;6.952;2023-02-01T01:13:42;5.95;116.53
51305;HTU21D;37392;50.964;6.952;2023-02-01T01:16:10;5.98;114.89
51305;HTU21D;37392;50.964;6.952;2023-02-01T01:18:36;5.95;115.29
51305;HTU21D;37392;50.964;6.952;2023-02-01T01:21:04;5.97;114.32
51305;HTU21D;37392;50.964;6.952;2023-02-01T01:23:31;5.99;114.54
51305;HTU21D;37392;50.964;6.952;2023-02-01T01:25:58;5.99;114.48
51305;HTU21D;37392;50.964;6.952;2023-02-01T01:28:24;5.94;114.29
51305;HTU21D;37392;50.964;6.952;2023-02-01T01:30:49;5.92;114.74
51305;HTU21D;37392;50.964;6.952;2023-02-01T01:33:15;5.92;115.37
51305;HTU21D;37392;50.964;6.952;2023-02-01T01:35:41;5.87;114.96
51305;HTU21D;37392;50.964;6.952;2023-02-01T01:38:06;5.81;115.12
51305;HTU21D;37392;50.964;6.952;2023-02-01T01:40:32;5.77;114.72
51305;HTU21D;37392;50.964;6.952;2023-02-01T01:42:59;5.71;114.38
51305;HTU21D;37392;50.964;6.952;2023-02-01T01:45:26;5.71;114.35
51305;HTU21D;37392;50.964;6.952;2023-02-01T01:47:56;5.65;114.03
51305;HTU21D;37392;50.964;6.952;2023-02-01T01:50:46;5.57;114.07
51305;HTU21D;37392;50.964;6.952;2023-02-01T01:53:17;5.49;114.07
51305;HTU21D;37392;50.964;6.952;2023-02-01T01:55:47;5.41;114.38
51305;HTU21D;37392;50.964;6.952;2023-02-01T01:58:17;5.34;114.94
51305;HTU21D;37392;50.964;6.952;2023-02-01T02:00:45;5.32;116.23
51305;HTU21D;37392;50.964;6.952;2023-02-01T02:03:21;5.28;116.56
51305;HTU21D;37392;50.964;6.952;2023-02-01T02:05:50;5.34;115.94
51305;HTU21D;37392;50.964;6.952;2023-02-01T02:08:18;5.38;117.31
51305;HTU21D;37392;50.964;6.952;2023-02-01T02:10:48;5.42;116.01
51305;HTU21D;37392;50.964;6.952;2023-02-01T02:13:47;5.51;114.06
51305;HTU21D;37392;50.964;6.952;2023-02-01T02:34:34;5.68;112.64
51305;HTU21D;37392;50.964;6.952;2023-02-01T02:37:24;5.71;112.68
51305;HTU21D;37392;50.964;6.952;2023-02-01T02:40:15;5.75;112.21
51305;HTU21D;37392;50.964;6.952;2023-02-01T02:42:44;5.74;112.90
51305;HTU21D;37392;50.964;6.952;2023-02-01T02:45:47;5.72;113.06
51305;HTU21D;37392;50.964;6.952;2023-02-01T02:48:42;5.75;113.77
51305;HTU21D;37392;50.964;6.952;2023-02-01T02:51:20;5.77;113.23
51305;HTU21D;37392;50.964;6.952;2023-02-01T02:54:16;5.76;113.62
51305;HTU21D;37392;50.964;6.952;2023-02-01T02:57:06;5.79;113.00
51305;HTU21D;37392;50.964;6.952;2023-02-01T02:59:53;5.80;112.91
51305;HTU21D;37392;50.964;6.952;2023-02-01T03:02:37;5.78;113.13
51305;HTU21D;37392;50.964;6.952;2023-02-01T03:05:22;5.74;113.48
51305;HTU21D;37392;50.964;6.952;2023-02-01T03:18:50;5.80;113.79
51305;HTU21D;37392;50.964;6.952;2023-02-01T03:21:24;5.85;113.00
51305;HTU21D;37392;50.964;6.952;2023-02-01T03:24:30;5.85;113.32
51305;HTU21D;37392;50.964;6.952;2023-02-01T03:27:13;5.83;113.54
51305;HTU21D;37392;50.964;6.952;2023-02-01T03:29:51;5.84;113.77
51305;HTU21D;37392;50.964;6.952;2023-02-01T03:32:20;5.89;113.11
51305;HTU21D;37392;50.964;6.952;2023-02-01T03:34:47;5.89;113.07
51305;HTU21D;37392;50.964;6.952;2023-02-01T03:37:18;5.95;112.42
51305;HTU21D;37392;50.964;6.952;2023-02-01T03:40:06;5.93;112.82
51305;HTU21D;37392;50.964;6.952;2023-02-01T03:42:50;5.93;112.39
51305;HTU21D;37392;50.964;6.952;2023-02-01T03:45:26;5.91;112.78
51305;HTU21D;37392;50.964;6.952;2023-02-01T03:47:57;5.87;112.98
51305;HTU21D;37392;50.964;6.952;2023-02-01T03:50:26;5.82;112.74
51305;HTU21D;37392;50.964;6.952;2023-02-01T03:52:59;5.75;112.69
51305;HTU21D;37392;50.964;6.952;2023-02-01T03:55:28;5.79;111.51
51305;HTU21D;37392;50.964;6.952;2023-02-01T04:00:31;5.67;112.75
51305;HTU21D;37392;50.964;6.952;2023-02-01T04:02:57;5.72;112.13
51305;HTU21D;37392;50.964;6.952;2023-02-01T04:05:23;5.78;111.31
51305;HTU21D;37392;50.964;6.952;2023-02-01T04:07:48;5.80;111.69
51305;HTU21D;37392;50.964;6.952;2023-02-01T04:10:14;5.84;111.74
51305;HTU21D;37392;50.964;6.952;2023-02-01T04:12:40;5.92;110.87
51305;HTU21D;37392;50.964;6.952;2023-02-01T04:15:07;5.91;111.29
51305;HTU21D;37392;50.964;6.952;2023-02-01T04:17:33;5.96;110.68
51305;HTU21D;37392;50.964;6.952;2023-02-01T04:19:59;5.99;110.10
51305;HTU21D;37392;50.964;6.952;2023-02-01T04:22:25;5.97;110.83
51305;HTU21D;37392;50.964;6.952;2023-02-01T04:24:51;5.99;110.74
51305;HTU21D;37392;50.964;6.952;2023-02-01T04:27:16;6.02;109.93
51305;HTU21D;37392;50.964;6.952;2023-02-01T04:29:42;6.00;110.55
51305;HTU21D;37392;50.964;6.952;2023-02-01T04:32:07;6.02;109.97
51305;HTU21D;37392;50.964;6.952;2023-02-01T04:34:33;6.01;110.39
51305;HTU21D;37392;50.964;6.952;2023-02-01T04:36:59;5.97;110.47
51305;HTU21D;37392;50.964;6.952;2023-02-01T04:39:25;5.97;109.37
51305;HTU21D;37392;50.964;6.952;2023-02-01T04:41:50;5.97;109.14
51305;HTU21D;37392;50.964;6.952;2023-02-01T04:44:17;5.91;109.39
51305;HTU21D;37392;50.964;6.952;2023-02-01T04:46:44;5.85;108.95
51305;HTU21D;37392;50.964;6.952;2023-02-01T04:49:13;5.68;109.64
51305;HTU21D;37392;50.964;6.952;2023-02-01T04:51:39;5.52;110.04
51305;HTU21D;37392;50.964;6.952;2023-02-01T04:54:06;5.41;109.75
51305;HTU21D;37392;50.964;6.952;2023-02-01T04:56:32;5.34;109.74
51305;HTU21D;37392;50.964;6.952;2023-02-01T04:58:58;5.24;110.31
51305;HTU21D;37392;50.964;6.952;2023-02-01T05:01:24;5.23;110.63
51305;HTU21D;37392;50.964;6.952;2023-02-01T05:03:50;5.10;110.69
51305;HTU21D;37392;50.964;6.952;2023-02-01T05:06:16;5.05;110.81
51305;HTU21D;37392;50.964;6.952;2023-02-01T05:08:42;5.02;110.42
51305;HTU21D;37392;50.964;6.952;2023-02-01T05:11:08;4.92;111.14
51305;HTU21D;37392;50.964;6.952;2023-02-01T05:13:54;4.89;110.62
51305;HTU21D;37392;50.964;6.952;2023-02-01T05:16:19;4.87;111.09
51305;HTU21D;37392;50.964;6.952;2023-02-01T05:18:46;4.77;111.17
51305;HTU21D;37392;50.964;6.952;2023-02-01T05:21:12;4.71;111.76
51305;HTU21D;37392;50.964;6.952;2023-02-01T05:23:37;4.61;111.97
51305;HTU21D;37392;50.964;6.952;2023-02-01T05:26:24;4.62;111.89
51305;HTU21D;37392;50.964;6.952;2023-02-01T05:28:50;4.59;111.80
51305;HTU21D;37392;50.964;6.952;2023-02-01T05:31:16;4.53;111.56
51305;HTU21D;37392;50.964;6.952;2023-02-01T05:33:41;4.50;111.92
51305;HTU21D;37392;50.964;6.952;2023-02-01T05:36:07;4.44;112.07
51305;HTU21D;37392;50.964;6.952;2023-02-01T05:38:33;4.42;111.91
51305;HTU21D;37392;50.964;6.952;2023-02-01T05:40:59;4.43;111.68
51305;HTU21D;37392;50.964;6.952;2023-02-01T05:43:24;4.38;111.86
51305;HTU21D;37392;50.964;6.952;2023-02-01T05:45:52;4.42;111.79
51305;HTU21D;37392;50.964;6.952;2023-02-01T05:48:18;4.44;111.14
51305;HTU21D;37392;50.964;6.952;2023-02-01T05:50:44;4.45;110.73
51305;HTU21D;37392;50.964;6.952;2023-02-01T05:53:10;4.47;110.15
51305;HTU21D;37392;50.964;6.952;2023-02-01T05:55:36;4.53;109.43
51305;HTU21D;37392;50.964;6.952;2023-02-01T05:58:03;4.52;109.85
51305;HTU21D;37392;50.964;6.952;2023-02-01T06:00:30;4.59;109.36
51305;HTU21D;37392;50.964;6.952;2023-02-01T06:02:58;4.74;108.46
51305;HTU21D;37392;50.964;6.952;2023-02-01T06:05:24;4.77;108.42
51305;HTU21D;37392;50.964;6.952;2023-02-01T06:07:50;4.73;108.19
51305;HTU21D;37392;50.964;6.952;2023-02-01T06:10:18;4.67;108.36
51305;HTU21D;37392;50.964;6.952;2023-02-01T06:12:44;4.66;108.55
51305;HTU21D;37392;50.964;6.952;2023-02-01T06:15:12;4.61;108.13
51305;HTU21D;37392;50.964;6.952;2023-02-01T06:17:38;4.59;108.60
51305;HTU21D;37392;50.964;6.952;2023-02-01T06:20:06;4.53;109.05
51305;HTU21D;37392;50.964;6.952;2023-02-01T06:22:33;4.57;109.43
51305;HTU21D;37392;50.964;6.952;2023-02-01T06:25:01;4.59;108.69
51305;HTU21D;37392;50.964;6.952;2023-02-01T06:27:28;4.62;108.70
51305;HTU21D;37392;50.964;6.952;2023-02-01T06:29:53;4.69;108.14
51305;HTU21D;37392;50.964;6.952;2023-02-01T06:32:20;4.75;108.03
51305;HTU21D;37392;50.964;6.952;2023-02-01T06:34:46;4.81;107.69
51305;HTU21D;37392;50.964;6.952;2023-02-01T06:37:12;4.90;108.07
51305;HTU21D;37392;50.964;6.952;2023-02-01T06:39:37;4.97;107.82
51305;HTU21D;37392;50.964;6.952;2023-02-01T06:42:03;5.07;106.87
51305;HTU21D;37392;50.964;6.952;2023-02-01T06:44:29;5.24;105.66
51305;HTU21D;37392;50.964;6.952;2023-02-01T06:46:54;5.36;105.52
51305;HTU21D;37392;50.964;6.952;2023-02-01T06:49:21;5.43;104.93
51305;HTU21D;37392;50.964;6.952;2023-02-01T06:51:46;5.49;104.44
51305;HTU21D;37392;50.964;6.952;2023-02-01T06:54:12;5.60;104.17
51305;HTU21D;37392;50.964;6.952;2023-02-01T06:56:38;5.66;103.43
51305;HTU21D;37392;50.964;6.952;2023-02-01T06:59:05;5.68;103.67
51305;HTU21D;37392;50.964;6.952;2023-02-01T07:01:31;5.71;103.38
51305;HTU21D;37392;50.964;6.952;2023-02-01T07:03:57;5.74;103.93
51305;HTU21D;37392;50.964;6.952;2023-02-01T07:06:22;5.74;103.71
51305;HTU21D;37392;50.964;6.952;2023-02-01T07:08:49;5.79;103.78
51305;HTU21D;37392;50.964;6.952;2023-02-01T07:11:15;5.86;103.44
51305;HTU21D;37392;50.964;6.952;2023-02-01T07:13:45;5.85;103.83
51305;HTU21D;37392;50.964;6.952;2023-02-01T07:16:13;5.89;102.86
51305;HTU21D;37392;50.964;6.952;2023-02-01T07:18:40;5.92;102.47
51305;HTU21D;37392;50.964;6.952;2023-02-01T07:21:06;5.95;101.96
51305;HTU21D;37392;50.964;6.952;2023-02-01T07:23:32;5.97;101.68
51305;HTU21D;37392;50.964;6.952;2023-02-01T07:25:59;6.06;101.83
51305;HTU21D;37392;50.964;6.952;2023-02-01T07:28:29;6.05;101.77
51305;HTU21D;37392;50.964;6.952;2023-02-01T07:31:06;6.06;102.06
51305;HTU21D;37392;50.964;6.952;2023-02-01T07:33:33;6.10;101.65
51305;HTU21D;37392;50.964;6.952;2023-02-01T07:36:04;6.12;102.14
51305;HTU21D;37392;50.964;6.952;2023-02-01T07:38:31;6.12;101.99
51305;HTU21D;37392;50.964;6.952;2023-02-01T07:40:58;6.19;101.87
51305;HTU21D;37392;50.964;6.952;2023-02-01T07:43:26;6.24;102.18
51305;HTU21D;37392;50.964;6.952;2023-02-01T07:45:53;6.25;101.55
51305;HTU21D;37392;50.964;6.952;2023-02-01T07:48:20;6.26;101.30
51305;HTU21D;37392;50.964;6.952;2023-02-01T07:50:47;6.27;100.83
51305;HTU21D;37392;50.964;6.952;2023-02-01T07:53:13;6.26;100.67
51305;HTU21D;37392;50.964;6.952;2023-02-01T07:55:39;6.28;101.23
51305;HTU21D;37392;50.964;6.952;2023-02-01T07:58:06;6.26;101.46
51305;HTU21D;37392;50.964;6.952;2023-02-01T08:00:32;6.31;101.32
51305;HTU21D;37392;50.964;6.952;2023-02-01T08:03:16;6.34;101.49
51305;HTU21D;37392;50.964;6.952;2023-02-01T08:05:42;6.37;101.18
51305;HTU21D;37392;50.964;6.952;2023-02-01T08:08:08;6.43;101.33
51305;HTU21D;37392;50.964;6.952;2023-02-01T08:10:36;6.41;100.54
51305;HTU21D;37392;50.964;6.952;2023-02-01T08:13:02;6.45;100.85
51305;HTU21D;37392;50.964;6.952;2023-02-01T08:15:29;6.46;100.48
51305;HTU21D;37392;50.964;6.952;2023-02-01T08:17:55;6.40;100.60
51305;HTU21D;37392;50.964;6.952;2023-02-01T08:20:21;6.42;100.41
51305;HTU21D;37392;50.964;6.952;2023-02-01T08:22:54;6.44;99.25
51305;HTU21D;37392;50.964;6.952;2023-02-01T08:25:20;6.42;99.58
51305;HTU21D;37392;50.964;6.952;2023-02-01T08:27:50;6.44;99.77
51305;HTU21D;37392;50.964;6.952;2023-02-01T08:30:19;6.50;101.16
51305;HTU21D;37392;50.964;6.952;2023-02-01T08:32:45;6.53;100.32
51305;HTU21D;37392;50.964;6.952;2023-02-01T08:35:11;6.57;100.45
51305;HTU21D;37392;50.964;6.952;2023-02-01T08:37:37;6.60;100.30
51305;HTU21D;37392;50.964;6.952;2023-02-01T08:40:03;6.65;99.32
51305;HTU21D;37392;50.964;6.952;2023-02-01T08:42:29;6.69;99.39
51305;HTU21D;37392;50.964;6.952;2023-02-01T08:45:16;6.75;98.64
51305;HTU21D;37392;50.964;6.952;2023-02-01T08:47:46;6.84;98.61
51305;HTU21D;37392;50.964;6.952;2023-02-01T08:50:13;6.89;99.06
51305;HTU21D;37392;50.964;6.952;2023-02-01T08:52:42;7.01;98.86
51305;HTU21D;37392;50.964;6.952;2023-02-01T08:55:08;7.15;98.06
51305;HTU21D;37392;50.964;6.952;2023-02-01T08:57:34;7.25;97.36
51305;HTU21D;37392;50.964;6.952;2023-02-01T09:00:00;7.32;96.42
51305;HTU21D;37392;50.964;6.952;2023-02-01T09:02:26;7.38;96.91
51305;HTU21D;37392;50.964;6.952;2023-02-01T09:04:52;7.45;96.43
51305;HTU21D;37392;50.964;6.952;2023-02-01T09:07:18;7.50;95.52
51305;HTU21D;37392;50.964;6.952;2023-02-01T09:09:44;7.63;94.70
51305;HTU21D;37392;50.964;6.952;2023-02-01T09:12:10;7.65;93.87
51305;HTU21D;37392;50.964;6.952;2023-02-01T09:14:36;7.73;94.97
51305;HTU21D;37392;50.964;6.952;2023-02-01T09:17:02;7.91;93.81
51305;HTU21D;37392;50.964;6.952;2023-02-01T09:19:28;8.30;93.43
51305;HTU21D;37392;50.964;6.952;2023-02-01T09:21:54;8.83;91.96
51305;HTU21D;37392;50.964;6.952;2023-02-01T09:24:19;8.90;89.85
51305;HTU21D;37392;50.964;6.952;2023-02-01T09:26:45;8.94;90.21
51305;HTU21D;37392;50.964;6.952;2023-02-01T09:29:14;8.77;88.88
51305;HTU21D;37392;50.964;6.952;2023-02-01T09:31:40;8.72;90.14
51305;HTU21D;37392;50.964;6.952;2023-02-01T09:34:07;8.67;90.68
51305;HTU21D;37392;50.964;6.952;2023-02-01T09:36:34;8.64;89.86
51305;HTU21D;37392;50.964;6.952;2023-02-01T09:39:01;8.59;90.10
51305;HTU21D;37392;50.964;6.952;2023-02-01T09:46:57;8.56;90.27
51305;HTU21D;37392;50.964;6.952;2023-02-01T09:49:32;8.64;90.05
51305;HTU21D;37392;50.964;6.952;2023-02-01T09:52:02;8.67;89.90
51305;HTU21D;37392;50.964;6.952;2023-02-01T09:54:39;8.76;89.96
51305;HTU21D;37392;50.964;6.952;2023-02-01T09:57:25;8.85;89.46
51305;HTU21D;37392;50.964;6.952;2023-02-01T10:00:28;8.89;89.18
51305;HTU21D;37392;50.964;6.952;2023-02-01T10:02:56;8.88;89.12
51305;HTU21D;37392;50.964;6.952;2023-02-01T10:09:28;9.02;88.28
51305;HTU21D;37392;50.964;6.952;2023-02-01T10:18:13;10.24;85.34
51305;HTU21D;37392;50.964;6.952;2023-02-01T10:21:04;10.95;82.49
51305;HTU21D;37392;50.964;6.952;2023-02-01T10:24:01;11.60;79.96
51305;HTU21D;37392;50.964;6.952;2023-02-01T10:26:32;12.16;77.53
51305;HTU21D;37392;50.964;6.952;2023-02-01T10:29:02;12.28;75.77
51305;HTU21D;37392;50.964;6.952;2023-02-01T10:31:31;12.46;75.70
51305;HTU21D;37392;50.964;6.952;2023-02-01T10:34:11;12.99;74.70
51305;HTU21D;37392;50.964;6.952;2023-02-01T10:36:54;13.11;73.46
51305;HTU21D;37392;50.964;6.952;2023-02-01T10:39:23;13.39;71.84
51305;HTU21D;37392;50.964;6.952;2023-02-01T10:41:49;13.75;70.68
51305;HTU21D;37392;50.964;6.952;2023-02-01T10:44:19;13.94;69.74
51305;HTU21D;37392;50.964;6.952;2023-02-01T10:46:50;14.28;68.49
51305;HTU21D;37392;50.964;6.952;2023-02-01T10:49:20;14.86;67.62
51305;HTU21D;37392;50.964;6.952;2023-02-01T10:52:05;14.85;67.27
51305;HTU21D;37392;50.964;6.952;2023-02-01T10:54:42;15.10;65.98
51305;HTU21D;37392;50.964;6.952;2023-02-01T10:57:10;15.06;65.17
51305;HTU21D;37392;50.964;6.952;2023-02-01T10:59:47;14.87;65.68
51305;HTU21D;37392;50.964;6.952;2023-02-01T11:04:45;14.33;66.78
51305;HTU21D;37392;50.964;6.952;2023-02-01T11:07:24;13.53;69.44
51305;HTU21D;37392;50.964;6.952;2023-02-01T11:09:53;13.11;71.00
51305;HTU21D;37392;50.964;6.952;2023-02-01T11:12:35;12.95;71.43
51305;HTU21D;37392;50.964;6.952;2023-02-01T11:17:42;12.13;72.99
51305;HTU21D;37392;50.964;6.952;2023-02-01T11:20:20;11.49;74.33
51305;HTU21D;37392;50.964;6.952;2023-02-01T11:23:01;11.44;75.88
51305;HTU21D;37392;50.964;6.952;2023-02-01T11:25:26;11.29;76.28
51305;HTU21D;37392;50.964;6.952;2023-02-01T11:27:54;11.33;76.92
51305;HTU21D;37392;50.964;6.952;2023-02-01T11:30:41;11.37;76.05
51305;HTU21D;37392;50.964;6.952;2023-02-01T11:33:15;11.49;75.92
51305;HTU21D;37392;50.964;6.952;2023-02-01T11:35:43;11.46;76.08
51305;HTU21D;37392;50.964;6.952;2023-02-01T11:38:25;11.32;76.34
51305;HTU21D;37392;50.964;6.952;2023-02-01T11:41:11;11.32;77.26
51305;HTU21D;37392;50.964;6.952;2023-02-01T11:43:37;11.47;76.88
51305;HTU21D;37392;50.964;6.952;2023-02-01T11:46:17;11.25;76.39
51305;HTU21D;37392;50.964;6.952;2023-02-01T11:48:50;11.04;76.88
51305;HTU21D;37392;50.964;6.952;2023-02-01T11:51:37;10.96;77.27
51305;HTU21D;37392;50.964;6.952;2023-02-01T11:54:33;10.85;77.33
51305;HTU21D;37392;50.964;6.952;2023-02-01T12:14:23;10.11;80.06
51305;HTU21D;37392;50.964;6.952;2023-02-01T12:25:24;9.72;81.27
51305;HTU21D;37392;50.964;6.952;2023-02-01T12:37:00;9.94;80.62
51305;HTU21D;37392;50.964;6.952;2023-02-01T12:43:02;10.15;80.36
51305;HTU21D;37392;50.964;6.952;2023-02-01T12:45:36;10.06;80.01
51305;HTU21D;37392;50.964;6.952;2023-02-01T12:50:56;9.82;80.77
51305;HTU21D;37392;50.964;6.952;2023-02-01T12:56:47;9.63;82.33
51305;HTU21D;37392;50.964;6.952;2023-02-01T12:59:30;9.49;81.72
51305;HTU21D;37392;50.964;6.952;2023-02-01T13:05:22;9.32;82.98
51305;HTU21D;37392;50.964;6.952;2023-02-01T13:08:10;9.27;83.50
51305;HTU21D;37392;50.964;6.952;2023-02-01T13:10:45;9.20;83.44
51305;HTU21D;37392;50.964;6.952;2023-02-01T13:13:55;9.15;83.74
51305;HTU21D;37392;50.964;6.952;2023-02-01T13:16:37;9.15;83.47
51305;HTU21D;37392;50.964;6.952;2023-02-01T13:22:06;9.01;84.01
51305;HTU21D;37392;50.964;6.952;2023-02-01T13:24:47;8.97;84.63
51305;HTU21D;37392;50.964;6.952;2023-02-01T13:27:16;9.00;84.95
51305;HTU21D;37392;50.964;6.952;2023-02-01T13:32:54;8.93;86.70
51305;HTU21D;37392;50.964;6.952;2023-02-01T13:35:54;8.90;88.25
51305;HTU21D;37392;50.964;6.952;2023-02-01T13:41:35;8.79;87.59
51305;HTU21D;37392;50.964;6.952;2023-02-01T13:44:20;8.74;88.23
51305;HTU21D;37392;50.964;6.952;2023-02-01T13:46:58;8.74;89.36
51305;HTU21D;37392;50.964;6.952;2023-02-01T13:49:32;8.65;91.05
51305;HTU21D;37392;50.964;6.952;2023-02-01T13:52:03;8.61;91.24
51305;HTU21D;37392;50.964;6.952;2023-02-01T13:54:33;8.61;90.35
51305;HTU21D;37392;50.964;6.952;2023-02-01T13:57:03;8.65;89.89
51305;HTU21D;37392;50.964;6.952;2023-02-01T13:59:49;8.70;89.18
51305;HTU21D;37392;50.964;6.952;2023-02-01T14:02:36;8.73;88.45
51305;HTU21D;37392;50.964;6.952;2023-02-01T14:05:54;8.76;88.00
51305;HTU21D;37392;50.964;6.952;2023-02-01T14:23:43;8.79;87.02
51305;HTU21D;37392;50.964;6.952;2023-02-01T14:26:15;8.77;86.66
51305;HTU21D;37392;50.964;6.952;2023-02-01T14:28:56;8.78;86.76
51305;HTU21D;37392;50.964;6.952;2023-02-01T14:44:50;8.87;85.36
51305;HTU21D;37392;50.964;6.952;2023-02-01T14:47:35;8.86;85.32
51305;HTU21D;37392;50.964;6.952;2023-02-01T14:52:40;8.82;85.49
51305;HTU21D;37392;50.964;6.952;2023-02-01T14:55:27;8.83;85.73
51305;HTU21D;37392;50.964;6.952;2023-02-01T14:57:55;8.82;85.48
51305;HTU21D;37392;50.964;6.952;2023-02-01T15:00:26;8.87;85.29
51305;HTU21D;37392;50.964;6.952;2023-02-01T15:06:00;8.86;85.40
51305;HTU21D;37392;50.964;6.952;2023-02-01T15:08:37;8.88;85.21
51305;HTU21D;37392;50.964;6.952;2023-02-01T15:11:13;8.82;84.85
51305;HTU21D;37392;50.964;6.952;2023-02-01T15:13:40;8.83;85.35
51305;HTU21D;37392;50.964;6.952;2023-02-01T15:16:12;8.82;85.57
51305;HTU21D;37392;50.964;6.952;2023-02-01T15:18:39;8.81;84.99
51305;HTU21D;37392;50.964;6.952;2023-02-01T15:21:14;8.81;85.20
51305;HTU21D;37392;50.964;6.952;2023-02-01T15:23:41;8.79;85.42
51305;HTU21D;37392;50.964;6.952;2023-02-01T15:26:07;8.76;85.45
51305;HTU21D;37392;50.964;6.952;2023-02-01T15:28:33;8.79;85.48
51305;HTU21D;37392;50.964;6.952;2023-02-01T15:31:01;8.79;85.88
51305;HTU21D;37392;50.964;6.952;2023-02-01T15:33:29;8.76;85.85
51305;HTU21D;37392;50.964;6.952;2023-02-01T15:36:11;8.75;85.95
51305;HTU21D;37392;50.964;6.952;2023-02-01T15:38:43;8.76;85.90
51305;HTU21D;37392;50.964;6.952;2023-02-01T15:49:01;8.65;86.46
51305;HTU21D;37392;50.964;6.952;2023-02-01T15:51:30;8.65;86.66
51305;HTU21D;37392;50.964;6.952;2023-02-01T15:54:22;8.64;87.06
51305;HTU21D;37392;50.964;6.952;2023-02-01T15:57:05;8.62;86.93
51305;HTU21D;37392;50.964;6.952;2023-02-01T16:00:21;8.60;86.67
51305;HTU21D;37392;50.964;6.952;2023-02-01T16:03:05;8.61;86.69
51305;HTU21D;37392;50.964;6.952;2023-02-01T16:05:46;8.65;86.73
51305;HTU21D;37392;50.964;6.952;2023-02-01T16:09:15;8.61;86.88
51305;HTU21D;37392;50.964;6.952;2023-02-01T16:12:00;8.63;87.03
51305;HTU21D;37392;50.964;6.952;2023-02-01T16:14:27;8.62;87.12
51305;HTU21D;37392;50.964;6.952;2023-02-01T16:16:55;8.63;87.41
51305;HTU21D;37392;50.964;6.952;2023-02-01T16:19:22;8.61;87.38
51305;HTU21D;37392;50.964;6.952;2023-02-01T16:21:56;8.61;87.52
51305;HTU21D;37392;50.964;6.952;2023-02-01T16:24:21;8.62;87.77
51305;HTU21D;37392;50.964;6.952;2023-02-01T16:26:50;8.63;89.00
51305;HTU21D;37392;50.964;6.952;2023-02-01T16:29:15;8.56;90.83
51305;HTU21D;37392;50.964;6.952;2023-02-01T16:31:42;8.52;92.86
51305;HTU21D;37392;50.964;6.952;2023-02-01T16:34:14;8.43;94.44
51305;HTU21D;37392;50.964;6.952;2023-02-01T16:36:42;8.31;94.56
51305;HTU21D;37392;50.964;6.952;2023-02-01T16:39:12;8.24;95.33
51305;HTU21D;37392;50.964;6.952;2023-02-01T16:41:38;8.18;95.33
51305;HTU21D;37392;50.964;6.952;2023-02-01T16:44:05;8.18;95.09
51305;HTU21D;37392;50.964;6.952;2023-02-01T16:46:37;8.15;95.33
51305;HTU21D;37392;50.964;6.952;2023-02-01T16:49:05;8.12;95.36
51305;HTU21D;37392;50.964;6.952;2023-02-01T16:51:35;8.09;95.50
51305;HTU21D;37392;50.964;6.952;2023-02-01T16:54:07;8.09;95.65
51305;HTU21D;37392;50.964;6.952;2023-02-01T16:56:33;8.08;95.88
51305;HTU21D;37392;50.964;6.952;2023-02-01T16:59:01;8.07;95.76
51305;HTU21D;37392;50.964;6.952;2023-02-01T17:01:27;8.08;96.33
51305;HTU21D;37392;50.964;6.952;2023-02-01T17:03:53;8.05;97.65
51305;HTU21D;37392;50.964;6.952;2023-02-01T17:06:21;8.07;98.86
51305;HTU21D;37392;50.964;6.952;2023-02-01T17:08:54;7.99;99.28
51305;HTU21D;37392;50.964;6.952;2023-02-01T17:11:23;7.96;99.72
51305;HTU21D;37392;50.964;6.952;2023-02-01T17:13:49;7.92;99.40
51305;HTU21D;37392;50.964;6.952;2023-02-01T17:18:56;7.90;99.24
51305;HTU21D;37392;50.964;6.952;2023-02-01T17:21:25;7.87;99.35
51305;HTU21D;37392;50.964;6.952;2023-02-01T17:23:53;7.87;99.14
51305;HTU21D;37392;50.964;6.952;2023-02-01T17:26:19;7.84;99.16
51305;HTU21D;37392;50.964;6.952;2023-02-01T17:28:45;7.86;98.69
51305;HTU21D;37392;50.964;6.952;2023-02-01T17:31:14;7.88;100.02
51305;HTU21D;37392;50.964;6.952;2023-02-01T17:33:41;7.83;103.76
51305;HTU21D;37392;50.964;6.952;2023-02-01T17:36:11;7.65;106.18
51305;HTU21D;37392;50.964;6.952;2023-02-01T17:38:38;7.52;106.63
51305;HTU21D;37392;50.964;6.952;2023-02-01T17:41:05;7.43;107.78
51305;HTU21D;37392;50.964;6.952;2023-02-01T17:43:31;7.37;108.11
51305;HTU21D;37392;50.964;6.952;2023-02-01T17:46:14;7.28;108.22
51305;HTU21D;37392;50.964;6.952;2023-02-01T17:48:43;7.26;108.08
51305;HTU21D;37392;50.964;6.952;2023-02-01T17:51:20;7.25;108.55
51305;HTU21D;37392;50.964;6.952;2023-02-01T17:53:48;7.23;109.14
51305;HTU21D;37392;50.964;6.952;2023-02-01T17:56:19;7.23;108.73
51305;HTU21D;37392;50.964;6.952;2023-02-01T17:58:46;7.23;108.37
51305;HTU21D;37392;50.964;6.952;2023-02-01T18:01:15;7.23;107.98
51305;HTU21D;37392;50.964;6.952;2023-02-01T18:03:43;7.20;107.98
51305;HTU21D;37392;50.964;6.952;2023-02-01T18:06:12;7.23;107.61
51305;HTU21D;37392;50.964;6.952;2023-02-01T18:08:39;7.24;107.27
51305;HTU21D;37392;50.964;6.952;2023-02-01T18:11:10;7.24;106.79
51305;HTU21D;37392;50.964;6.952;2023-02-01T18:13:40;7.23;106.50
51305;HTU21D;37392;50.964;6.952;2023-02-01T18:16:19;7.23;106.31
51305;HTU21D;37392;50.964;6.952;2023-02-01T18:18:56;7.30;105.56
51305;HTU21D;37392;50.964;6.952;2023-02-01T18:21:33;7.31;104.77
51305;HTU21D;37392;50.964;6.952;2023-02-01T18:24:01;7.35;104.86